createdAt,value
2022-08-08T00:00:53.090Z,13.59
2022-08-08T00:03:31.450Z,13.59
2022-08-08T00:06:47.885Z,13.59
2022-08-08T00:09:55.981Z,13.55
2022-08-08T00:13:10.828Z,13.53
2022-08-08T00:16:36.076Z,13.52
2022-08-08T00:19:46.698Z,13.52
2022-08-08T00:23:02.558Z,13.49
2022-08-08T00:26:29.010Z,13.47
2022-08-08T00:29:44.905Z,13.42
2022-08-08T00:32:56.879Z,13.37
2022-08-08T00:36:15.068Z,13.37
2022-08-08T00:41:06.863Z,13.39
2022-08-08T00:43:40.894Z,13.38
2022-08-08T00:47:36.770Z,13.38
2022-08-08T00:51:24.843Z,13.37
2022-08-08T00:55:36.047Z,13.35
2022-08-08T00:59:18.746Z,13.36
2022-08-08T01:03:59.988Z,13.37
2022-08-08T01:07:13.368Z,13.37
2022-08-08T01:10:54.342Z,13.37
2022-08-08T01:14:54.129Z,13.36
2022-08-08T01:18:53.356Z,13.37
2022-08-08T01:22:32.347Z,13.38
2022-08-08T01:26:17.882Z,13.35
2022-08-08T01:29:59.164Z,13.34
2022-08-08T01:34:00.522Z,13.35
2022-08-08T01:37:56.883Z,13.34
2022-08-08T01:41:16.010Z,13.36
2022-08-08T01:44:39.081Z,13.39
2022-08-08T01:48:16.293Z,13.40
2022-08-08T01:52:42.795Z,13.40
2022-08-08T01:56:27.580Z,13.39
2022-08-08T01:59:21.822Z,13.40
2022-08-08T02:02:42.986Z,13.40
2022-08-08T02:05:59.255Z,13.41
2022-08-08T02:09:17.402Z,13.41
2022-08-08T02:12:29.859Z,13.43
2022-08-08T02:15:41.352Z,13.43
2022-08-08T02:18:58.902Z,13.45
2022-08-08T02:22:31.592Z,13.47
2022-08-08T02:25:48.754Z,13.46
2022-08-08T02:29:22.102Z,13.47
2022-08-08T02:32:46.566Z,13.50
2022-08-08T02:36:12.516Z,13.50
2022-08-08T02:39:59.548Z,13.48
2022-08-08T02:44:43.121Z,13.48
2022-08-08T02:47:59.683Z,13.48
2022-08-08T02:51:56.544Z,13.47
2022-08-08T02:55:24.146Z,13.47
2022-08-08T02:59:00.604Z,13.43
2022-08-08T03:02:37.683Z,13.44
2022-08-08T03:06:34.986Z,13.45
2022-08-08T03:10:33.430Z,13.43
2022-08-08T03:15:56.573Z,13.42
2022-08-08T03:17:52.129Z,13.47
2022-08-08T03:21:09.969Z,13.48
2022-08-08T03:24:21.463Z,13.45
2022-08-08T03:27:35.975Z,13.46
2022-08-08T03:30:49.345Z,13.49
2022-08-08T03:34:16.778Z,13.51
2022-08-08T03:38:52.827Z,13.52
2022-08-08T03:40:55.379Z,13.53
2022-08-08T03:44:01.736Z,13.54
2022-08-08T03:47:19.450Z,13.54
2022-08-08T03:50:28.037Z,13.54
2022-08-08T03:53:47.324Z,13.54
2022-08-08T03:56:54.889Z,13.49
2022-08-08T04:00:11.583Z,13.42
2022-08-08T04:03:18.348Z,13.46
2022-08-08T04:06:32.665Z,13.50
2022-08-08T04:09:58.875Z,13.54
2022-08-08T04:13:18.164Z,13.54
2022-08-08T04:16:40.658Z,13.56
2022-08-08T04:19:47.471Z,13.58
2022-08-08T04:22:55.006Z,13.62
2022-08-08T04:26:09.405Z,13.66
2022-08-08T04:29:16.396Z,13.72
2022-08-08T04:32:30.572Z,13.77
2022-08-08T04:35:40.706Z,13.83
2022-08-08T04:39:47.928Z,13.90
2022-08-08T04:42:23.621Z,13.94
2022-08-08T04:45:30.329Z,13.96
2022-08-08T04:48:36.539Z,14.01
2022-08-08T04:51:55.171Z,14.11
2022-08-08T04:55:04.516Z,14.23
2022-08-08T04:58:14.709Z,14.34
2022-08-08T05:01:24.091Z,14.45
2022-08-08T05:04:44.531Z,14.56
2022-08-08T05:07:51.231Z,14.63
2022-08-08T05:11:02.984Z,14.69
2022-08-08T05:14:11.944Z,14.75
2022-08-08T05:17:19.102Z,14.80
2022-08-08T05:20:25.639Z,14.87
2022-08-08T05:23:32.962Z,14.92
2022-08-08T05:26:48.782Z,14.95
2022-08-08T05:29:55.165Z,15.01
2022-08-08T05:33:03.354Z,15.04
2022-08-08T05:36:25.440Z,15.01
2022-08-08T05:39:35.024Z,15.03
2022-08-08T05:42:44.703Z,15.01
2022-08-08T05:45:53.324Z,15.01
2022-08-08T05:49:03.815Z,15.01
2022-08-08T05:52:17.835Z,15.00
2022-08-08T05:56:09.531Z,15.02
2022-08-08T05:59:12.647Z,15.07
2022-08-08T06:02:44.008Z,15.15
2022-08-08T06:05:59.094Z,15.21
2022-08-08T06:09:58.556Z,15.23
2022-08-08T06:12:36.706Z,15.22
2022-08-08T06:15:51.375Z,15.23
2022-08-08T06:19:01.841Z,15.30
2022-08-08T06:26:35.945Z,15.46
2022-08-08T06:29:26.887Z,15.46
2022-08-08T06:32:47.707Z,15.51
2022-08-08T06:36:04.693Z,15.61
2022-08-08T06:39:16.473Z,15.70
2022-08-08T06:42:23.646Z,15.78
2022-08-08T06:45:33.404Z,15.87
2022-08-08T06:48:40.084Z,15.97
2022-08-08T07:04:37.715Z,16.65
2022-08-08T07:07:24.022Z,16.88
2022-08-08T07:57:09.029Z,16.87
2022-08-08T08:00:17.874Z,16.87
2022-08-08T08:03:43.461Z,16.87
2022-08-08T08:06:50.770Z,16.86
2022-08-08T08:09:58.690Z,16.88
2022-08-08T08:13:25.825Z,16.89
2022-08-08T08:16:50.449Z,16.90
2022-08-08T08:20:01.677Z,16.92
2022-08-08T08:23:07.934Z,16.89
2022-08-08T08:26:14.781Z,16.78
2022-08-08T08:29:33.680Z,16.81
2022-08-08T08:32:51.113Z,16.85
2022-08-08T08:36:20.418Z,16.88
2022-08-08T08:39:22.916Z,16.86
2022-08-08T08:42:36.199Z,16.95
2022-08-08T08:45:43.986Z,17.05
2022-08-08T08:48:50.747Z,17.11
2022-08-08T08:52:02.908Z,17.20
2022-08-08T08:55:14.740Z,17.28
2022-08-08T08:58:32.737Z,17.38
2022-08-08T09:01:43.726Z,17.49
2022-08-08T09:04:57.335Z,17.66
2022-08-08T09:08:12.759Z,17.77
2022-08-08T09:11:25.676Z,17.81
2022-08-08T09:14:42.811Z,17.94
2022-08-08T09:17:55.803Z,18.12
2022-08-08T09:22:02.438Z,18.26
2022-08-08T09:24:32.667Z,18.43
2022-08-08T09:27:56.701Z,18.63
2022-08-08T09:31:13.229Z,18.68
2022-08-08T09:34:32.058Z,18.79
2022-08-08T09:37:58.267Z,18.91
2022-08-08T09:41:08.167Z,19.03
2022-08-08T09:44:34.455Z,19.18
2022-08-08T09:48:05.159Z,19.41
2022-08-08T09:51:09.895Z,19.57
2022-08-08T09:54:19.979Z,19.56
2022-08-08T09:57:55.812Z,19.71
2022-08-08T10:01:15.632Z,19.92
2022-08-08T10:04:47.528Z,20.22
2022-08-08T10:08:01.630Z,20.42
2022-08-08T10:12:22.444Z,20.67
2022-08-08T10:14:40.224Z,20.81
2022-08-08T10:18:06.458Z,21.08
2022-08-08T10:21:25.292Z,21.25
2022-08-08T10:24:38.173Z,21.39
2022-08-08T10:27:46.449Z,21.33
2022-08-08T10:31:21.513Z,21.30
2022-08-08T10:35:00.448Z,21.52
2022-08-08T10:38:10.743Z,21.64
2022-08-08T10:41:24.329Z,21.66
2022-08-08T10:44:43.198Z,21.58
2022-08-08T10:47:56.710Z,21.57
2022-08-08T10:51:14.828Z,21.76
2022-08-08T10:54:26.844Z,22.06
2022-08-08T10:57:45.505Z,22.33
2022-08-08T11:01:03.149Z,22.29
2022-08-08T11:04:12.282Z,22.16
2022-08-08T11:08:30.277Z,22.09
2022-08-08T11:11:08.166Z,22.20
2022-08-08T11:14:32.510Z,22.42
2022-08-08T11:17:59.385Z,22.55
2022-08-08T11:21:10.083Z,22.71
2022-08-08T11:24:17.171Z,22.70
2022-08-08T11:27:36.962Z,22.82
2022-08-08T11:30:51.844Z,22.83
2022-08-08T11:34:22.911Z,22.71
2022-08-08T11:37:39.790Z,22.69
2022-08-08T11:40:57.979Z,22.43
2022-08-08T11:44:05.381Z,22.30
2022-08-08T11:47:17.152Z,22.19
2022-08-08T11:50:25.030Z,22.04
2022-08-08T11:53:42.897Z,21.93
2022-08-08T11:57:14.000Z,21.86
2022-08-08T12:00:23.379Z,21.83
2022-08-08T12:03:34.227Z,21.97
2022-08-08T12:06:40.730Z,22.09
2022-08-08T12:09:59.326Z,22.25
2022-08-08T12:13:12.293Z,22.61
2022-08-08T12:16:30.198Z,22.82
2022-08-08T12:19:51.839Z,22.93
2022-08-08T12:23:00.375Z,23.03
2022-08-08T12:26:16.919Z,23.06
2022-08-08T12:29:42.331Z,23.11
2022-08-08T12:32:51.218Z,23.03
2022-08-08T12:35:57.517Z,22.92
2022-08-08T12:39:06.757Z,22.82
2022-08-08T12:42:20.883Z,22.80
2022-08-08T12:46:00.096Z,22.83
2022-08-08T12:52:34.838Z,22.85
2022-08-08T12:56:17.753Z,22.90
2022-08-08T12:59:36.454Z,22.91
2022-08-08T13:03:00.700Z,22.95
2022-08-08T13:06:13.993Z,22.82
2022-08-08T13:09:29.951Z,22.74
2022-08-08T13:12:46.979Z,22.64
2022-08-08T13:15:55.076Z,22.61
2022-08-08T13:19:08.029Z,22.69
2022-08-08T13:22:24.530Z,22.80
2022-08-08T13:25:37.668Z,22.81
2022-08-08T13:28:45.710Z,22.91
2022-08-08T13:31:53.165Z,22.97
2022-08-08T13:35:00.642Z,22.91
2022-08-08T13:38:08.725Z,22.85
2022-08-08T13:41:19.669Z,22.70
2022-08-08T13:44:30.291Z,22.60
2022-08-08T13:47:37.534Z,22.56
2022-08-08T13:50:52.540Z,22.46
2022-08-08T13:54:01.035Z,22.25
2022-08-08T13:57:12.625Z,22.08
2022-08-08T14:00:23.078Z,22.05
2022-08-08T14:03:52.329Z,22.02
2022-08-08T14:07:03.332Z,21.96
2022-08-08T14:10:17.570Z,21.87
2022-08-08T14:13:59.221Z,21.81
2022-08-08T14:17:11.798Z,21.78
2022-08-08T14:20:56.958Z,21.77
2022-08-08T14:24:07.968Z,21.78
2022-08-08T14:27:27.069Z,21.80
2022-08-08T14:30:37.722Z,21.83
2022-08-08T14:33:51.812Z,21.87
2022-08-08T14:37:08.309Z,21.91
2022-08-08T14:40:24.010Z,21.99
2022-08-08T14:44:02.577Z,22.02
2022-08-08T14:47:01.598Z,22.10
2022-08-08T14:50:21.373Z,22.23
2022-08-08T14:53:56.294Z,22.40
2022-08-08T14:57:03.984Z,22.42
2022-08-08T15:00:13.756Z,22.45
2022-08-08T15:03:19.943Z,22.45
2022-08-08T15:06:28.902Z,22.47
2022-08-08T15:09:35.122Z,22.49
2022-08-08T15:12:42.506Z,22.39
2022-08-08T15:16:02.474Z,22.19
2022-08-08T15:19:09.775Z,22.11
2022-08-08T15:22:17.924Z,22.02
2022-08-08T15:25:32.975Z,21.96
2022-08-08T15:28:39.545Z,21.92
2022-08-08T15:32:03.712Z,21.86
2022-08-08T15:35:12.655Z,21.83
2022-08-08T15:38:22.594Z,21.86
2022-08-08T15:41:43.493Z,21.88
2022-08-08T15:44:50.527Z,21.91
2022-08-08T15:48:11.126Z,21.89
2022-08-08T15:51:22.758Z,21.88
2022-08-08T15:54:40.566Z,21.86
2022-08-08T15:57:46.735Z,21.85
2022-08-08T16:00:53.328Z,21.82
2022-08-08T16:03:59.920Z,21.80
2022-08-08T16:07:07.034Z,21.78
2022-08-08T16:13:15.124Z,21.77
2022-08-08T16:13:46.011Z,21.72
2022-08-08T16:16:55.247Z,21.70
2022-08-08T16:20:01.567Z,21.68
2022-08-08T16:23:08.811Z,21.64
2022-08-08T16:26:19.358Z,21.58
2022-08-08T16:30:12.883Z,21.51
2022-08-08T16:33:05.700Z,21.44
2022-08-08T16:36:15.645Z,21.39
2022-08-08T16:39:59.963Z,21.36
2022-08-08T16:42:51.772Z,21.33
2022-08-08T16:46:37.473Z,21.30
2022-08-08T16:49:38.508Z,21.27
2022-08-08T16:55:04.075Z,21.23
2022-08-08T16:56:15.253Z,21.18
2022-08-08T16:59:21.780Z,21.13
2022-08-08T17:02:38.114Z,21.09
2022-08-08T17:05:50.935Z,21.05
2022-08-08T17:08:57.193Z,21.01
2022-08-08T17:12:03.445Z,20.95
2022-08-08T17:15:20.152Z,20.90
2022-08-08T17:18:27.118Z,20.86
2022-08-08T17:21:41.145Z,20.83
2022-08-08T17:24:53.740Z,20.77
2022-08-08T17:28:00.356Z,20.70
2022-08-08T17:31:44.768Z,20.65
2022-08-08T17:34:47.855Z,20.57
2022-08-08T17:38:01.197Z,20.51
2022-08-08T17:41:10.221Z,20.46
2022-08-08T17:44:17.711Z,20.41
2022-08-08T17:47:27.614Z,20.34
2022-08-08T17:50:34.806Z,20.27
2022-08-08T17:53:43.394Z,20.23
2022-08-08T17:56:50.362Z,20.17
2022-08-08T18:00:01.619Z,20.11
2022-08-08T18:03:13.348Z,20.05
2022-08-08T18:06:30.757Z,20.00
2022-08-08T18:09:38.840Z,19.93
2022-08-08T18:12:46.016Z,19.84
2022-08-08T18:16:04.220Z,19.77
2022-08-08T18:19:13.284Z,19.71
2022-08-08T18:22:49.913Z,19.63
2022-08-08T18:25:48.046Z,19.57
2022-08-08T18:28:55.516Z,19.51
2022-08-08T18:32:03.229Z,19.45
2022-08-08T18:35:15.835Z,19.34
2022-08-08T18:38:29.547Z,19.26
2022-08-08T18:41:51.683Z,19.19
2022-08-08T18:45:09.227Z,19.15
2022-08-08T18:48:29.576Z,19.06
2022-08-08T18:51:52.732Z,18.98
2022-08-08T18:55:09.802Z,18.88
2022-08-08T18:58:17.853Z,18.80
2022-08-08T19:02:25.390Z,18.73
2022-08-08T19:04:55.513Z,18.65
2022-08-08T19:08:02.313Z,18.61
2022-08-08T19:11:09.426Z,18.57
2022-08-08T19:14:20.431Z,18.55
2022-08-08T19:17:29.359Z,18.49
2022-08-08T19:20:53.770Z,18.43
2022-08-08T19:24:00.326Z,18.40
2022-08-08T19:27:07.853Z,18.37
2022-08-08T19:30:24.029Z,18.36
2022-08-08T19:33:51.951Z,18.32
2022-08-08T19:37:00.178Z,18.24
2022-08-08T19:40:08.363Z,18.21
2022-08-08T19:43:22.065Z,18.21
2022-08-08T19:46:34.723Z,18.19
2022-08-08T19:49:43.077Z,18.16
2022-08-08T19:52:54.948Z,18.15
2022-08-08T19:56:11.965Z,18.15
2022-08-08T19:59:22.470Z,18.12
2022-08-08T20:02:29.126Z,18.09
2022-08-08T20:06:13.400Z,18.07
2022-08-08T20:09:04.604Z,18.04
2022-08-08T20:12:15.391Z,18.03
2022-08-08T20:15:59.767Z,18.03
2022-08-08T20:19:06.414Z,18.04
2022-08-08T20:22:20.867Z,18.01
2022-08-08T20:25:33.503Z,17.95
2022-08-08T20:28:39.686Z,17.90
2022-08-08T20:32:09.978Z,17.85
2022-08-08T20:35:17.914Z,17.84
2022-08-08T20:38:32.679Z,17.81
2022-08-08T20:41:41.398Z,17.78
2022-08-08T20:44:48.427Z,17.76
2022-08-08T20:47:57.717Z,17.71
2022-08-08T20:51:07.834Z,17.66
2022-08-08T20:54:13.868Z,17.63
2022-08-08T20:57:30.830Z,17.62
2022-08-08T21:00:42.303Z,17.59
2022-08-08T21:03:55.360Z,17.56
2022-08-08T21:07:03.000Z,17.53
2022-08-08T21:10:14.331Z,17.52
2022-08-08T21:13:23.478Z,17.49
2022-08-08T21:16:46.640Z,17.47
2022-08-08T21:19:52.556Z,17.45
2022-08-08T21:23:09.197Z,17.42
2022-08-08T21:26:26.863Z,17.39
2022-08-08T21:30:03.961Z,17.37
2022-08-08T21:33:00.067Z,17.33
2022-08-08T21:36:28.723Z,17.30
2022-08-08T21:39:56.144Z,17.27
2022-08-08T21:43:01.698Z,17.25
2022-08-08T21:48:06.606Z,17.24
2022-08-08T21:49:37.207Z,17.23
2022-08-08T21:54:27.269Z,17.21
2022-08-08T21:56:31.126Z,17.19
2022-08-08T22:00:01.243Z,17.15
2022-08-08T22:03:02.830Z,17.13
2022-08-08T22:06:13.256Z,17.11
2022-08-08T22:09:43.590Z,17.09
2022-08-08T22:12:51.479Z,17.06
2022-08-08T22:16:00.769Z,17.05
2022-08-08T22:19:08.694Z,17.01
2022-08-08T22:22:24.369Z,16.97
2022-08-08T22:25:41.524Z,16.92
2022-08-08T22:29:14.446Z,16.89
2022-08-08T22:32:29.500Z,16.83
2022-08-08T22:36:04.412Z,16.79
2022-08-08T22:39:01.933Z,16.77
2022-08-08T22:42:12.960Z,16.72
2022-08-08T22:45:19.115Z,16.65
2022-08-08T22:48:25.326Z,16.63
2022-08-08T22:51:35.108Z,16.60
2022-08-08T22:54:53.968Z,16.58
2022-08-08T22:58:02.492Z,16.55
2022-08-08T23:01:26.873Z,16.50
2022-08-08T23:04:37.709Z,16.45
2022-08-08T23:07:56.964Z,16.40
2022-08-08T23:11:06.451Z,16.37
2022-08-08T23:14:20.965Z,16.39
2022-08-08T23:17:30.002Z,16.39
2022-08-08T23:20:36.522Z,16.39
2022-08-08T23:23:48.251Z,16.37
2022-08-08T23:27:00.598Z,16.36
2022-08-08T23:30:09.185Z,16.35
2022-08-08T23:33:21.139Z,16.35
2022-08-08T23:36:42.839Z,16.36
2022-08-08T23:39:55.328Z,16.39
2022-08-08T23:43:04.360Z,16.40
2022-08-08T23:48:59.627Z,16.41
2022-08-08T23:49:37.097Z,16.43
2022-08-08T23:52:43.902Z,16.45
2022-08-08T23:55:50.235Z,16.46
2022-08-08T23:58:59.532Z,16.47
